createdAt,value
2023-05-21T00:00:09.373Z,8.18
2023-05-21T00:02:39.847Z,10.57
2023-05-21T00:05:12.817Z,9.65
2023-05-21T00:07:41.464Z,11.68
2023-05-21T00:10:09.028Z,10.63
2023-05-21T00:12:36.127Z,11.85
2023-05-21T00:15:03.114Z,17.08
2023-05-21T00:17:30.344Z,12.40
2023-05-21T00:19:57.732Z,8.13
2023-05-21T00:22:24.729Z,7.88
2023-05-21T00:24:51.651Z,12.95
2023-05-21T00:27:18.568Z,14.65
2023-05-21T00:29:45.515Z,15.65
2023-05-21T00:32:12.712Z,13.73
2023-05-21T00:34:40.515Z,13.23
2023-05-21T00:37:10.069Z,17.48
2023-05-21T00:39:37.300Z,14.38
2023-05-21T00:42:04.752Z,8.35
2023-05-21T00:44:34.486Z,13.40
2023-05-21T00:47:02.492Z,10.35
2023-05-21T00:49:29.844Z,11.45
2023-05-21T00:51:57.180Z,18.67
2023-05-21T00:54:25.043Z,12.55
2023-05-21T00:56:52.300Z,13.18
2023-05-21T00:59:19.467Z,18.27
2023-05-21T01:01:46.678Z,13.30
2023-05-21T01:04:13.731Z,12.68
2023-05-21T01:06:40.573Z,8.23
2023-05-21T01:09:07.546Z,8.57
2023-05-21T01:11:40.973Z,11.60
2023-05-21T01:14:11.296Z,11.85
2023-05-21T01:16:39.905Z,9.20
2023-05-21T01:19:07.972Z,13.70
2023-05-21T01:21:37.645Z,12.38
2023-05-21T01:24:07.875Z,13.18
2023-05-21T01:26:38.736Z,15.07
2023-05-21T01:29:13.401Z,10.18
2023-05-21T01:31:44.441Z,14.60
2023-05-21T01:34:11.865Z,13.68
2023-05-21T01:36:44.527Z,16.90
2023-05-21T01:39:16.311Z,11.25
2023-05-21T01:41:45.555Z,11.70
2023-05-21T01:44:13.243Z,14.85
2023-05-21T01:46:41.383Z,14.25
2023-05-21T01:49:09.554Z,15.90
2023-05-21T01:51:37.203Z,10.20
2023-05-21T01:54:04.035Z,12.40
2023-05-21T01:56:34.036Z,8.68
2023-05-21T01:59:01.416Z,18.45
2023-05-21T02:01:30.420Z,10.95
2023-05-21T02:03:58.212Z,10.40
2023-05-21T02:06:25.507Z,8.20
2023-05-21T02:08:52.429Z,14.25
2023-05-21T02:11:19.571Z,10.10
2023-05-21T02:13:47.147Z,11.15
2023-05-21T02:16:15.966Z,15.20
2023-05-21T02:18:46.603Z,10.30
2023-05-21T02:21:13.616Z,10.05
2023-05-21T02:23:42.262Z,10.35
2023-05-21T02:26:09.187Z,8.35
2023-05-21T02:28:36.544Z,11.40
2023-05-21T02:31:04.060Z,11.75
2023-05-21T02:33:31.171Z,11.55
2023-05-21T02:35:58.196Z,15.00
2023-05-21T02:38:26.036Z,14.85
2023-05-21T02:40:53.699Z,11.93
2023-05-21T02:43:21.258Z,13.38
2023-05-21T02:45:48.357Z,14.93
2023-05-21T02:48:15.321Z,13.82
2023-05-21T02:50:42.679Z,9.00
2023-05-21T02:53:09.547Z,12.02
2023-05-21T02:55:36.990Z,7.28
2023-05-21T02:58:03.961Z,11.63
2023-05-21T03:00:30.941Z,8.00
2023-05-21T03:02:58.011Z,9.50
2023-05-21T03:05:25.120Z,7.50
2023-05-21T03:07:52.747Z,7.93
2023-05-21T03:10:20.679Z,13.95
2023-05-21T03:12:47.656Z,5.40
2023-05-21T03:15:14.997Z,7.97
2023-05-21T03:17:42.451Z,6.53
2023-05-21T03:20:16.158Z,6.18
2023-05-21T03:22:46.737Z,5.68
2023-05-21T03:25:13.916Z,10.98
2023-05-21T03:27:41.199Z,13.55
2023-05-21T03:30:21.282Z,7.00
2023-05-21T03:33:17.465Z,9.35
2023-05-21T03:35:45.501Z,7.72
2023-05-21T03:38:12.556Z,6.00
2023-05-21T03:40:39.484Z,7.07
2023-05-21T03:43:07.196Z,11.35
2023-05-21T03:45:34.241Z,14.77
2023-05-21T03:48:20.052Z,10.10
2023-05-21T03:50:47.435Z,12.50
2023-05-21T03:53:14.837Z,9.48
2023-05-21T03:55:41.801Z,9.20
2023-05-21T03:58:09.643Z,10.27
2023-05-21T04:00:40.759Z,5.40
2023-05-21T04:05:37.115Z,8.77
2023-05-21T04:08:04.296Z,6.97
2023-05-21T04:10:31.271Z,8.60
2023-05-21T04:12:58.308Z,8.63
2023-05-21T04:15:27.623Z,7.88
2023-05-21T04:17:55.341Z,7.70
2023-05-21T04:20:22.339Z,8.60
2023-05-21T04:22:49.222Z,6.55
2023-05-21T04:25:16.140Z,6.05
2023-05-21T04:27:43.755Z,7.15
2023-05-21T04:30:11.275Z,4.75
2023-05-21T04:32:39.402Z,4.63
2023-05-21T04:35:07.991Z,2.60
2023-05-21T04:37:35.281Z,2.03
2023-05-21T04:40:04.389Z,2.58
2023-05-21T04:42:33.091Z,3.85
2023-05-21T04:45:00.870Z,1.98
2023-05-21T04:47:30.492Z,2.33
2023-05-21T04:49:57.501Z,1.70
2023-05-21T04:52:25.167Z,2.38
2023-05-21T04:54:54.160Z,2.00
2023-05-21T04:57:21.883Z,1.42
2023-05-21T04:59:49.430Z,1.20
2023-05-21T05:02:16.408Z,1.90
2023-05-21T05:04:44.107Z,1.40
2023-05-21T05:07:11.334Z,1.77
2023-05-21T05:09:38.251Z,1.20
2023-05-21T05:12:05.833Z,1.23
2023-05-21T05:14:32.738Z,1.02
2023-05-21T05:17:00.251Z,0.80
2023-05-21T05:19:28.182Z,0.82
2023-05-21T05:21:55.180Z,0.80
2023-05-21T05:24:21.997Z,1.23
2023-05-21T05:26:48.949Z,0.65
2023-05-21T05:29:16.443Z,0.68
2023-05-21T05:31:43.449Z,0.68
2023-05-21T05:34:10.605Z,0.80
2023-05-21T05:36:38.297Z,2.80
2023-05-21T05:39:05.611Z,0.60
2023-05-21T05:41:32.653Z,0.80
2023-05-21T05:43:59.521Z,1.65
2023-05-21T05:46:30.105Z,0.40
2023-05-21T05:48:57.640Z,0.40
2023-05-21T05:51:24.429Z,0.50
2023-05-21T05:53:51.429Z,0.45
2023-05-21T05:56:18.240Z,0.40
2023-05-21T05:58:45.066Z,0.43
2023-05-21T06:01:14.209Z,0.65
2023-05-21T06:03:41.408Z,0.22
2023-05-21T06:06:14.614Z,0.30
2023-05-21T06:08:42.688Z,0.13
2023-05-21T06:11:09.943Z,0.20
2023-05-21T06:13:37.156Z,0.20
2023-05-21T06:16:06.485Z,0.10
2023-05-21T06:18:33.510Z,0.20
2023-05-21T06:21:00.617Z,0.40
2023-05-21T06:23:28.321Z,0.32
2023-05-21T06:25:55.436Z,0.20
2023-05-21T06:28:22.337Z,0.30
2023-05-21T06:30:49.726Z,0.30
2023-05-21T06:33:16.899Z,0.40
2023-05-21T06:35:44.350Z,0.50
2023-05-21T06:38:12.031Z,0.35
2023-05-21T06:40:38.876Z,1.77
2023-05-21T06:43:06.190Z,0.32
2023-05-21T06:45:41.552Z,0.52
2023-05-21T06:48:26.382Z,0.50
2023-05-21T06:50:53.382Z,0.50
2023-05-21T06:53:20.288Z,0.43
2023-05-21T06:55:47.226Z,0.40
2023-05-21T06:58:31.291Z,0.38
2023-05-21T07:00:58.861Z,0.38
2023-05-21T07:03:26.073Z,0.30
2023-05-21T07:05:53.979Z,0.68
2023-05-21T07:08:21.545Z,0.40
2023-05-21T07:10:49.500Z,0.32
2023-05-21T07:13:17.417Z,2.65
2023-05-21T07:15:44.842Z,0.43
2023-05-21T07:18:12.162Z,0.30
2023-05-21T07:20:39.506Z,0.52
2023-05-21T07:23:12.751Z,0.30
2023-05-21T07:25:39.743Z,0.40
2023-05-21T07:28:06.835Z,0.40
2023-05-21T07:30:35.326Z,0.38
2023-05-21T07:33:04.066Z,0.30
2023-05-21T07:35:31.259Z,0.30
2023-05-21T07:37:58.088Z,1.48
2023-05-21T07:40:25.054Z,0.30
2023-05-21T07:42:52.405Z,0.40
2023-05-21T07:45:22.111Z,0.30
2023-05-21T07:47:49.386Z,0.10
2023-05-21T07:50:16.554Z,0.52
2023-05-21T07:52:43.542Z,0.32
2023-05-21T07:55:11.261Z,0.38
2023-05-21T07:57:39.941Z,0.63
2023-05-21T08:00:15.833Z,0.47
2023-05-21T08:02:46.994Z,0.68
2023-05-21T08:05:16.618Z,0.22
2023-05-21T08:07:44.366Z,0.40
2023-05-21T08:10:11.417Z,0.35
2023-05-21T08:12:38.313Z,0.40
2023-05-21T08:15:07.097Z,0.47
2023-05-21T08:17:39.631Z,0.30
2023-05-21T08:20:07.593Z,1.20
2023-05-21T08:22:37.222Z,0.40
2023-05-21T08:25:04.704Z,0.15
2023-05-21T08:27:31.514Z,0.20
2023-05-21T08:29:58.605Z,0.20
2023-05-21T08:32:26.465Z,0.75
2023-05-21T08:34:54.354Z,0.10
2023-05-21T08:37:41.400Z,0.20
2023-05-21T08:40:43.554Z,0.20
2023-05-21T08:43:14.620Z,0.75
2023-05-21T08:45:53.451Z,0.20
2023-05-21T08:48:23.185Z,0.68
2023-05-21T08:50:54.378Z,1.15
2023-05-21T08:53:29.419Z,2.15
2023-05-21T08:55:57.757Z,0.80
2023-05-21T08:58:33.873Z,0.60
2023-05-21T09:01:01.728Z,1.10
2023-05-21T09:03:30.172Z,0.43
2023-05-21T09:05:57.678Z,0.50
2023-05-21T09:08:32.656Z,0.38
2023-05-21T09:11:06.516Z,0.10
2023-05-21T09:13:40.703Z,0.20
2023-05-21T09:16:13.736Z,0.45
2023-05-21T09:18:40.690Z,0.30
2023-05-21T09:21:29.538Z,0.40
2023-05-21T09:24:06.050Z,0.30
2023-05-21T09:26:33.039Z,0.30
2023-05-21T09:29:03.782Z,0.68
2023-05-21T09:31:30.882Z,0.20
2023-05-21T09:33:57.888Z,0.20
2023-05-21T09:36:27.167Z,1.50
2023-05-21T09:38:54.013Z,0.70
2023-05-21T09:41:22.362Z,0.50
2023-05-21T09:43:49.661Z,1.75
2023-05-21T09:46:21.045Z,0.93
2023-05-21T09:48:48.097Z,0.30
2023-05-21T09:51:19.802Z,0.95
2023-05-21T09:53:49.829Z,0.38
2023-05-21T09:56:22.527Z,0.30
2023-05-21T09:58:52.051Z,0.30
2023-05-21T10:01:19.978Z,0.35
2023-05-21T10:03:52.170Z,0.20
2023-05-21T10:06:19.449Z,0.40
2023-05-21T10:08:48.745Z,0.60
2023-05-21T10:11:16.486Z,0.28
2023-05-21T10:13:46.026Z,0.20
2023-05-21T10:16:13.001Z,0.30
2023-05-21T10:18:40.509Z,0.20
2023-05-21T10:21:08.229Z,0.75
2023-05-21T10:23:36.556Z,0.20
2023-05-21T10:26:04.265Z,0.30
2023-05-21T10:28:31.512Z,0.28
2023-05-21T10:30:58.840Z,0.30
2023-05-21T10:33:25.849Z,0.30
2023-05-21T10:35:53.707Z,0.50
2023-05-21T10:38:23.440Z,0.40
2023-05-21T10:40:50.278Z,0.45
2023-05-21T10:43:36.033Z,0.80
2023-05-21T10:46:21.095Z,0.50
2023-05-21T10:49:22.735Z,0.57
2023-05-21T10:52:09.519Z,1.00
2023-05-21T10:54:46.318Z,0.60
2023-05-21T10:57:36.017Z,0.65
2023-05-21T11:00:06.150Z,0.52
2023-05-21T11:02:33.126Z,1.20
2023-05-21T11:05:01.196Z,1.58
2023-05-21T11:07:56.724Z,1.20
2023-05-21T11:10:44.547Z,0.90
2023-05-21T11:13:16.661Z,0.80
2023-05-21T11:15:58.619Z,0.77
2023-05-21T11:18:38.133Z,0.82
2023-05-21T11:21:15.056Z,0.60
2023-05-21T11:23:51.353Z,0.60
2023-05-21T11:26:18.382Z,0.70
2023-05-21T11:28:45.190Z,0.90
2023-05-21T11:31:28.099Z,0.50
2023-05-21T11:34:17.166Z,0.55
2023-05-21T11:36:48.512Z,0.60
2023-05-21T11:39:21.764Z,0.43
2023-05-21T11:41:51.332Z,1.05
2023-05-21T11:44:18.264Z,1.85
2023-05-21T11:46:46.441Z,1.00
2023-05-21T11:49:13.460Z,1.25
2023-05-21T11:51:40.757Z,1.50
2023-05-21T11:54:09.214Z,1.50
2023-05-21T11:56:36.935Z,1.65
2023-05-21T11:59:03.792Z,1.63
2023-05-21T12:01:31.266Z,1.67
2023-05-21T12:03:58.093Z,2.17
2023-05-21T12:06:28.013Z,3.95
2023-05-21T12:08:58.438Z,2.13
2023-05-21T12:11:26.846Z,1.60
2023-05-21T12:13:53.686Z,1.70
2023-05-21T12:16:20.979Z,1.88
2023-05-21T12:18:48.021Z,3.08
2023-05-21T12:21:15.681Z,1.33
2023-05-21T12:23:42.426Z,2.55
2023-05-21T12:26:12.149Z,1.13
2023-05-21T12:28:39.705Z,4.55
2023-05-21T12:31:06.730Z,1.08
2023-05-21T12:33:35.000Z,1.20
2023-05-21T12:36:03.919Z,2.17
2023-05-21T12:38:31.728Z,2.25
2023-05-21T12:41:06.073Z,3.05
2023-05-21T12:43:33.569Z,2.15
2023-05-21T12:46:00.503Z,1.50
2023-05-21T12:48:27.442Z,1.70
2023-05-21T12:50:54.245Z,1.88
2023-05-21T12:53:21.052Z,1.60
2023-05-21T12:55:47.877Z,1.65
2023-05-21T12:58:14.821Z,2.10
2023-05-21T13:00:43.288Z,1.10
2023-05-21T13:03:10.248Z,1.38
2023-05-21T13:05:40.530Z,1.30
2023-05-21T13:08:07.464Z,1.50
2023-05-21T13:10:34.261Z,1.15
2023-05-21T13:13:01.819Z,1.00
2023-05-21T13:15:28.774Z,2.58
2023-05-21T13:17:57.263Z,1.58
2023-05-21T13:20:26.552Z,2.10
2023-05-21T13:22:54.337Z,3.38
2023-05-21T13:25:25.008Z,4.00
2023-05-21T13:30:20.122Z,2.45
2023-05-21T13:32:47.656Z,3.20
2023-05-21T13:35:16.764Z,1.70
2023-05-21T13:37:44.714Z,1.20
2023-05-21T13:40:16.509Z,1.92
2023-05-21T13:42:45.529Z,2.35
2023-05-21T13:45:14.384Z,1.77
2023-05-21T13:47:41.661Z,3.78
2023-05-21T13:50:09.567Z,2.35
2023-05-21T13:52:38.555Z,3.28
2023-05-21T13:55:06.086Z,2.70
2023-05-21T13:57:33.653Z,2.90
2023-05-21T14:00:01.157Z,1.75
2023-05-21T14:02:28.397Z,2.95
2023-05-21T14:04:55.448Z,3.08
2023-05-21T14:07:22.573Z,7.25
2023-05-21T14:09:49.732Z,7.00
2023-05-21T14:12:17.155Z,3.17
2023-05-21T14:14:44.202Z,5.53
2023-05-21T14:17:11.158Z,7.53
2023-05-21T14:19:38.032Z,3.60
2023-05-21T14:22:04.997Z,8.90
2023-05-21T14:24:31.823Z,4.75
2023-05-21T14:26:58.732Z,3.03
2023-05-21T14:29:25.584Z,8.82
2023-05-21T14:31:52.460Z,5.22
2023-05-21T14:34:19.372Z,4.35
2023-05-21T14:36:46.216Z,2.97
2023-05-21T14:39:13.063Z,4.18
2023-05-21T14:41:40.022Z,5.45
2023-05-21T14:44:06.933Z,6.68
2023-05-21T14:46:33.971Z,8.45
2023-05-21T14:49:00.991Z,8.30
2023-05-21T14:51:27.987Z,13.98
2023-05-21T14:53:55.803Z,8.07
2023-05-21T14:56:23.568Z,11.38
2023-05-21T14:58:50.376Z,13.30
2023-05-21T15:01:17.933Z,10.50
2023-05-21T15:03:45.272Z,9.27
2023-05-21T15:06:12.556Z,10.05
2023-05-21T15:08:40.208Z,11.02
2023-05-21T15:11:10.217Z,10.05
2023-05-21T15:13:38.351Z,11.47
2023-05-21T15:16:05.484Z,8.45
2023-05-21T15:18:32.358Z,9.80
2023-05-21T15:20:59.352Z,10.98
2023-05-21T15:23:27.877Z,13.93
2023-05-21T15:25:55.694Z,10.48
2023-05-21T15:28:23.367Z,9.68
2023-05-21T15:30:50.210Z,10.05
2023-05-21T15:33:17.179Z,16.70
2023-05-21T15:35:44.379Z,8.02
2023-05-21T15:38:11.619Z,9.48
2023-05-21T15:40:41.450Z,10.73
2023-05-21T15:43:08.472Z,12.98
2023-05-21T15:45:35.607Z,10.57
2023-05-21T15:48:02.798Z,9.98
2023-05-21T15:50:29.713Z,9.85
2023-05-21T15:52:56.588Z,13.32
2023-05-21T15:55:23.429Z,12.45
2023-05-21T15:57:50.341Z,10.50
2023-05-21T16:00:17.140Z,12.25
2023-05-21T16:02:44.146Z,12.07
2023-05-21T16:05:11.117Z,10.85
2023-05-21T16:07:38.427Z,13.43
2023-05-21T16:10:06.622Z,17.55
2023-05-21T16:12:33.445Z,9.32
2023-05-21T16:15:00.333Z,12.63
2023-05-21T16:17:27.256Z,11.93
2023-05-21T16:19:54.036Z,14.60
2023-05-21T16:22:20.876Z,11.80
2023-05-21T16:24:48.004Z,13.85
2023-05-21T16:27:14.925Z,12.35
2023-05-21T16:29:42.144Z,11.05
2023-05-21T16:32:10.674Z,13.85
2023-05-21T16:34:37.570Z,13.02
2023-05-21T16:37:04.676Z,9.52
2023-05-21T16:39:31.568Z,10.85
2023-05-21T16:41:59.899Z,7.45
2023-05-21T16:44:27.509Z,6.95
2023-05-21T16:46:54.473Z,7.95
2023-05-21T16:49:21.464Z,4.07
2023-05-21T16:51:48.347Z,4.93
2023-05-21T16:54:15.125Z,6.00
2023-05-21T16:56:42.018Z,4.60
2023-05-21T16:59:08.770Z,5.75
2023-05-21T17:01:35.745Z,3.25
2023-05-21T17:04:02.875Z,4.70
2023-05-21T17:06:29.911Z,4.05
2023-05-21T17:08:56.671Z,3.00
2023-05-21T17:11:23.530Z,3.03
2023-05-21T17:13:50.504Z,3.40
2023-05-21T17:16:17.428Z,2.70
2023-05-21T17:18:44.425Z,5.85
2023-05-21T17:21:11.343Z,3.30
2023-05-21T17:23:38.164Z,3.08
2023-05-21T17:26:07.155Z,3.70
2023-05-21T17:28:33.916Z,3.60
2023-05-21T17:31:01.875Z,4.38
2023-05-21T17:33:28.906Z,4.55
2023-05-21T17:35:58.475Z,3.88
2023-05-21T17:38:25.317Z,2.78
2023-05-21T17:40:52.250Z,3.40
2023-05-21T17:43:19.135Z,2.33
2023-05-21T17:45:46.290Z,2.03
2023-05-21T17:48:13.243Z,5.20
2023-05-21T17:50:40.180Z,2.75
2023-05-21T17:53:07.167Z,2.95
2023-05-21T17:55:34.116Z,2.33
2023-05-21T17:58:01.066Z,2.03
2023-05-21T18:00:27.936Z,2.97
2023-05-21T18:02:54.865Z,2.63
2023-05-21T18:05:22.863Z,2.55
2023-05-21T18:07:49.794Z,3.10
2023-05-21T18:10:16.684Z,3.25
2023-05-21T18:12:46.213Z,2.63
2023-05-21T18:15:14.204Z,2.97
2023-05-21T18:17:41.142Z,2.65
2023-05-21T18:20:08.505Z,6.22
2023-05-21T18:22:36.712Z,6.63
2023-05-21T18:25:04.603Z,4.82
2023-05-21T18:27:31.395Z,5.85
2023-05-21T18:30:02.321Z,9.82
2023-05-21T18:34:56.700Z,5.22
2023-05-21T18:37:23.594Z,9.50
2023-05-21T18:39:50.478Z,6.68
2023-05-21T18:42:17.315Z,6.80
2023-05-21T18:44:46.430Z,2.00
2023-05-21T18:47:13.748Z,5.90
2023-05-21T18:49:40.547Z,4.70
2023-05-21T18:52:07.767Z,6.82
2023-05-21T18:54:34.691Z,9.48
2023-05-21T18:57:01.504Z,6.53
2023-05-21T18:59:29.071Z,5.72
2023-05-21T19:01:56.136Z,7.28
2023-05-21T19:04:23.024Z,6.63
2023-05-21T19:06:49.904Z,4.45
2023-05-21T19:09:17.121Z,6.65
2023-05-21T19:11:43.960Z,3.83
2023-05-21T19:14:10.764Z,3.75
2023-05-21T19:16:37.599Z,5.93
2023-05-21T19:19:04.485Z,4.70
2023-05-21T19:21:31.657Z,4.85
2023-05-21T19:23:58.851Z,11.93
2023-05-21T19:26:25.755Z,3.58
2023-05-21T19:28:55.545Z,4.38
2023-05-21T19:31:23.052Z,4.55
2023-05-21T19:33:50.178Z,3.50
2023-05-21T19:36:17.268Z,4.60
2023-05-21T19:38:50.746Z,3.45
2023-05-21T19:41:18.331Z,3.83
2023-05-21T19:43:45.820Z,8.75
2023-05-21T19:46:13.024Z,3.47
2023-05-21T19:48:39.990Z,6.80
2023-05-21T19:51:06.822Z,3.83
2023-05-21T19:53:33.762Z,5.38
2023-05-21T19:56:00.721Z,4.40
2023-05-21T19:58:29.653Z,3.85
2023-05-21T20:00:58.503Z,4.88
2023-05-21T20:03:26.738Z,4.65
2023-05-21T20:05:53.899Z,4.15
2023-05-21T20:08:21.183Z,4.28
2023-05-21T20:10:50.526Z,2.83
2023-05-21T20:13:18.412Z,5.47
2023-05-21T20:15:45.227Z,3.13
2023-05-21T20:18:12.882Z,4.50
2023-05-21T20:20:41.415Z,5.32
2023-05-21T20:23:08.980Z,5.43
2023-05-21T20:25:35.901Z,3.15
2023-05-21T20:28:04.017Z,3.40
2023-05-21T20:30:34.928Z,7.90
2023-05-21T20:35:29.442Z,4.75
2023-05-21T20:38:02.177Z,3.60
2023-05-21T20:40:29.301Z,7.25
2023-05-21T20:42:56.537Z,4.35
2023-05-21T20:45:23.815Z,3.90
2023-05-21T20:47:51.036Z,3.55
2023-05-21T20:50:18.330Z,5.55
2023-05-21T20:52:47.287Z,5.13
2023-05-21T20:55:15.026Z,3.92
2023-05-21T20:57:42.301Z,6.40
2023-05-21T21:00:13.200Z,5.65
2023-05-21T21:02:40.828Z,5.28
2023-05-21T21:05:10.785Z,3.50
2023-05-21T21:07:37.805Z,5.05
2023-05-21T21:10:05.650Z,4.60
2023-05-21T21:12:32.611Z,6.07
2023-05-21T21:14:59.501Z,6.25
2023-05-21T21:17:26.657Z,7.35
2023-05-21T21:19:54.551Z,8.57
2023-05-21T21:22:21.728Z,6.22
2023-05-21T21:24:48.970Z,5.03
2023-05-21T21:27:15.999Z,7.07
2023-05-21T21:29:42.852Z,5.75
2023-05-21T21:32:10.057Z,6.55
2023-05-21T21:34:36.927Z,6.80
2023-05-21T21:37:04.392Z,9.18
2023-05-21T21:39:31.176Z,9.07
2023-05-21T21:41:58.620Z,10.45
2023-05-21T21:44:25.745Z,8.60
2023-05-21T21:46:52.839Z,8.43
2023-05-21T21:49:19.774Z,10.00
2023-05-21T21:51:47.149Z,5.57
2023-05-21T21:54:14.070Z,8.60
2023-05-21T21:56:41.671Z,7.35
2023-05-21T21:59:08.710Z,7.32
2023-05-21T22:01:36.202Z,7.07
2023-05-21T22:04:03.335Z,4.35
2023-05-21T22:06:31.549Z,8.00
2023-05-21T22:08:58.414Z,7.38
2023-05-21T22:11:26.719Z,5.90
2023-05-21T22:13:53.918Z,6.45
2023-05-21T22:16:21.280Z,7.30
2023-05-21T22:18:50.225Z,4.00
2023-05-21T22:21:18.724Z,6.18
2023-05-21T22:23:45.560Z,4.90
2023-05-21T22:26:12.405Z,3.88
2023-05-21T22:28:39.661Z,4.55
2023-05-21T22:31:08.020Z,8.23
2023-05-21T22:33:35.326Z,4.10
2023-05-21T22:36:02.411Z,9.18
2023-05-21T22:38:29.396Z,6.20
2023-05-21T22:40:56.782Z,7.90
2023-05-21T22:43:23.892Z,6.85
2023-05-21T22:45:50.796Z,10.57
2023-05-21T22:48:18.511Z,6.22
2023-05-21T22:50:46.545Z,5.85
2023-05-21T22:53:14.001Z,4.75
2023-05-21T22:55:41.177Z,6.10
2023-05-21T22:58:08.020Z,8.07
